LRC656 SKRG-SKBO
Flight info
| Callsign | LRC656 |
|---|---|
| Flight time | 0h 30m |
| Altitude | 25000 |
| Route | ISVAT2B ISVAT ISVAT5E |
| Aircraft | A20N/M-SDE2E3FGHIRWXY/LB1 |
Departure
| Time | 2026-04-25 02:40 |
|---|---|
| Airport | Jose Maria Córdova International Airport (SKRG) |
Arrival
| Time | 2026-04-25 03:10 |
|---|---|
| Airport | El Dorado International Airport (SKBO) |
| Time | Latitude | Longitude | Altitude | Speed | Heading |
|---|---|---|---|---|---|
| 2026-04-25 02:04 | 6.17101 | -75.42690 | 7021 ft | 0 kts | 281° |
| 2026-04-25 02:17 | 6.17101 | -75.42689 | 7017 ft | 2 kts | 281° |
| 2026-04-25 02:17 | 6.17100 | -75.42685 | 7017 ft | 3 kts | 281° |
| 2026-04-25 02:17 | 6.17096 | -75.42667 | 7022 ft | 3 kts | 281° |
| 2026-04-25 02:17 | 6.17093 | -75.42641 | 7019 ft | 4 kts | 259° |
| 2026-04-25 02:18 | 6.17100 | -75.42623 | 7020 ft | 0 kts | 231° |
| 2026-04-25 02:18 | 6.17111 | -75.42612 | 7019 ft | 2 kts | 189° |
| 2026-04-25 02:18 | 6.17124 | -75.42616 | 7020 ft | 4 kts | 129° |
| 2026-04-25 02:18 | 6.17149 | -75.42622 | 7018 ft | 4 kts | 191° |
| 2026-04-25 02:19 | 6.17143 | -75.42621 | 7019 ft | 3 kts | 181° |
| 2026-04-25 02:19 | 6.17141 | -75.42621 | 7019 ft | 0 kts | 181° |
| 2026-04-25 02:24 | 6.17134 | -75.42621 | 7020 ft | 2 kts | 181° |
| 2026-04-25 02:24 | 6.17113 | -75.42621 | 7017 ft | 4 kts | 176° |
| 2026-04-25 02:25 | 6.17086 | -75.42616 | 7016 ft | 5 kts | 167° |
| 2026-04-25 02:25 | 6.17042 | -75.42596 | 7016 ft | 9 kts | 150° |
| 2026-04-25 02:25 | 6.16987 | -75.42560 | 7015 ft | 9 kts | 147° |
| 2026-04-25 02:25 | 6.16926 | -75.42521 | 7010 ft | 12 kts | 151° |
| 2026-04-25 02:26 | 6.16843 | -75.42484 | 6995 ft | 15 kts | 169° |
| 2026-04-25 02:26 | 6.16731 | -75.42482 | 6995 ft | 18 kts | 180° |
| 2026-04-25 02:26 | 6.16603 | -75.42480 | 6987 ft | 20 kts | 179° |
| 2026-04-25 02:26 | 6.16459 | -75.42478 | 6986 ft | 22 kts | 178° |
| 2026-04-25 02:27 | 6.16303 | -75.42473 | 6980 ft | 19 kts | 178° |
| 2026-04-25 02:27 | 6.16222 | -75.42471 | 6978 ft | 12 kts | 181° |
| 2026-04-25 02:27 | 6.16137 | -75.42475 | 6975 ft | 13 kts | 181° |
| 2026-04-25 02:27 | 6.16047 | -75.42474 | 6975 ft | 13 kts | 180° |
| 2026-04-25 02:28 | 6.15954 | -75.42474 | 6975 ft | 14 kts | 180° |
| 2026-04-25 02:28 | 6.15859 | -75.42473 | 6975 ft | 14 kts | 179° |
| 2026-04-25 02:28 | 6.15766 | -75.42472 | 6975 ft | 13 kts | 180° |
| 2026-04-25 02:28 | 6.15677 | -75.42472 | 6975 ft | 13 kts | 180° |
| 2026-04-25 02:29 | 6.15591 | -75.42472 | 6975 ft | 12 kts | 180° |
| 2026-04-25 02:29 | 6.15510 | -75.42472 | 6976 ft | 11 kts | 180° |
| 2026-04-25 02:29 | 6.15434 | -75.42471 | 6976 ft | 11 kts | 180° |
| 2026-04-25 02:29 | 6.15363 | -75.42471 | 6976 ft | 10 kts | 180° |
| 2026-04-25 02:30 | 6.15285 | -75.42471 | 6977 ft | 13 kts | 180° |
| 2026-04-25 02:30 | 6.15183 | -75.42473 | 6977 ft | 16 kts | 181° |
| 2026-04-25 02:30 | 6.15070 | -75.42472 | 6977 ft | 12 kts | 180° |
| 2026-04-25 02:30 | 6.14970 | -75.42473 | 6977 ft | 16 kts | 179° |
| 2026-04-25 02:31 | 6.14889 | -75.42448 | 6974 ft | 12 kts | 120° |
| 2026-04-25 02:31 | 6.14886 | -75.42424 | 6975 ft | 0 kts | 91° |
| 2026-04-25 02:32 | 6.14886 | -75.42422 | 6975 ft | 0 kts | 91° |
| 2026-04-25 02:38 | 6.14886 | -75.42392 | 6975 ft | 13 kts | 91° |
| 2026-04-25 02:39 | 6.14889 | -75.42343 | 6975 ft | 10 kts | 69° |
| 2026-04-25 02:39 | 6.14987 | -75.42299 | 6977 ft | 20 kts | 359° |
| 2026-04-25 02:39 | 6.15241 | -75.42303 | 6980 ft | 68 kts | 360° |
| 2026-04-25 02:39 | 6.15955 | -75.42309 | 6979 ft | 134 kts | 0° |
| 2026-04-25 02:40 | 6.17066 | -75.42318 | 7036 ft | 180 kts | 359° |
| 2026-04-25 02:40 | 6.18211 | -75.42324 | 8121 ft | 148 kts | 359° |
| 2026-04-25 02:40 | 6.19322 | -75.42331 | 8408 ft | 175 kts | 359° |
| 2026-04-25 02:40 | 6.20566 | -75.42335 | 8870 ft | 186 kts | 359° |
| 2026-04-25 02:41 | 6.21914 | -75.42175 | 9187 ft | 207 kts | 19° |
| 2026-04-25 02:41 | 6.23125 | -75.41323 | 9653 ft | 220 kts | 51° |
| 2026-04-25 02:41 | 6.23708 | -75.39902 | 10317 ft | 225 kts | 85° |
| 2026-04-25 02:41 | 6.23451 | -75.38370 | 10832 ft | 234 kts | 118° |
| 2026-04-25 02:42 | 6.22366 | -75.37133 | 11319 ft | 240 kts | 141° |
| 2026-04-25 02:42 | 6.21073 | -75.36027 | 11767 ft | 256 kts | 144° |
| 2026-04-25 02:42 | 6.19603 | -75.34993 | 12366 ft | 263 kts | 138° |
| 2026-04-25 02:42 | 6.18251 | -75.33645 | 12632 ft | 287 kts | 136° |
| 2026-04-25 02:43 | 6.16544 | -75.32498 | 12979 ft | 302 kts | 152° |
| 2026-04-25 02:43 | 6.14626 | -75.31616 | 13698 ft | 304 kts | 157° |
| 2026-04-25 02:43 | 6.12641 | -75.30851 | 14415 ft | 308 kts | 162° |
| 2026-04-25 02:43 | 6.10577 | -75.30106 | 14850 ft | 320 kts | 161° |
| 2026-04-25 02:44 | 6.08481 | -75.29305 | 15491 ft | 324 kts | 160° |
| 2026-04-25 02:44 | 6.06409 | -75.28463 | 16110 ft | 328 kts | 159° |
| 2026-04-25 02:44 | 6.04295 | -75.27570 | 16745 ft | 331 kts | 159° |
| 2026-04-25 02:44 | 6.02164 | -75.26661 | 17371 ft | 335 kts | 158° |
| 2026-04-25 02:45 | 6.00009 | -75.25737 | 17978 ft | 339 kts | 158° |
| 2026-04-25 02:45 | 5.97832 | -75.24799 | 18573 ft | 342 kts | 158° |
| 2026-04-25 02:45 | 5.95634 | -75.23848 | 19097 ft | 346 kts | 158° |
| 2026-04-25 02:45 | 5.93417 | -75.22888 | 19616 ft | 349 kts | 158° |
| 2026-04-25 02:46 | 5.91177 | -75.21917 | 20113 ft | 352 kts | 158° |
| 2026-04-25 02:46 | 5.88948 | -75.20951 | 20622 ft | 355 kts | 158° |
| 2026-04-25 02:46 | 5.86662 | -75.19961 | 21088 ft | 360 kts | 158° |
| 2026-04-25 02:46 | 5.84352 | -75.18961 | 21600 ft | 363 kts | 158° |
| 2026-04-25 02:47 | 5.82022 | -75.17952 | 22122 ft | 366 kts | 158° |
| 2026-04-25 02:47 | 5.79671 | -75.16934 | 22617 ft | 370 kts | 158° |
| 2026-04-25 02:47 | 5.77295 | -75.15909 | 22995 ft | 374 kts | 158° |
| 2026-04-25 02:47 | 5.74897 | -75.14878 | 23102 ft | 375 kts | 158° |
| 2026-04-25 02:48 | 5.72506 | -75.13849 | 23121 ft | 373 kts | 158° |
| 2026-04-25 02:48 | 5.70193 | -75.12664 | 23117 ft | 374 kts | 149° |
| 2026-04-25 02:48 | 5.68087 | -75.11136 | 23121 ft | 375 kts | 140° |
| 2026-04-25 02:48 | 5.66230 | -75.09355 | 23126 ft | 374 kts | 135° |
| 2026-04-25 02:49 | 5.64382 | -75.07512 | 23120 ft | 375 kts | 136° |
| 2026-04-25 02:49 | 5.62526 | -75.05677 | 23107 ft | 373 kts | 136° |
| 2026-04-25 02:49 | 5.60619 | -75.03939 | 23105 ft | 369 kts | 147° |
| 2026-04-25 02:49 | 5.58310 | -75.02843 | 23114 ft | 369 kts | 167° |
| 2026-04-25 02:50 | 5.55772 | -75.02600 | 23114 ft | 367 kts | 187° |
| 2026-04-25 02:50 | 5.53278 | -75.03073 | 22978 ft | 364 kts | 193° |
| 2026-04-25 02:50 | 5.50771 | -75.03413 | 22635 ft | 364 kts | 182° |
| 2026-04-25 02:50 | 5.48251 | -75.03238 | 22200 ft | 363 kts | 171° |
| 2026-04-25 02:51 | 5.45799 | -75.02641 | 21729 ft | 362 kts | 163° |
| 2026-04-25 02:51 | 5.43429 | -75.01810 | 21339 ft | 359 kts | 160° |
| 2026-04-25 02:51 | 5.41141 | -75.00892 | 20885 ft | 358 kts | 158° |
| 2026-04-25 02:51 | 5.38849 | -74.99934 | 20373 ft | 356 kts | 158° |
| 2026-04-25 02:52 | 5.36578 | -74.98973 | 19952 ft | 353 kts | 158° |
| 2026-04-25 02:52 | 5.34326 | -74.98006 | 19547 ft | 351 kts | 158° |
| 2026-04-25 02:52 | 5.32092 | -74.97046 | 19131 ft | 349 kts | 158° |
| 2026-04-25 02:52 | 5.29864 | -74.96093 | 18703 ft | 347 kts | 158° |
| 2026-04-25 02:53 | 5.27652 | -74.95152 | 18328 ft | 344 kts | 158° |
| 2026-04-25 02:53 | 5.25454 | -74.94219 | 17901 ft | 342 kts | 158° |
| 2026-04-25 02:53 | 5.23274 | -74.93295 | 17471 ft | 339 kts | 158° |
| 2026-04-25 02:53 | 5.21225 | -74.92154 | 17049 ft | 337 kts | 142° |
| 2026-04-25 02:54 | 5.19604 | -74.90480 | 16695 ft | 333 kts | 125° |
| 2026-04-25 02:54 | 5.18430 | -74.88477 | 16583 ft | 335 kts | 120° |
| 2026-04-25 02:54 | 5.17289 | -74.86456 | 16563 ft | 339 kts | 120° |
| 2026-04-25 02:54 | 5.16122 | -74.84408 | 16562 ft | 338 kts | 120° |
| 2026-04-25 02:55 | 5.14949 | -74.82368 | 16561 ft | 338 kts | 121° |
| 2026-04-25 02:55 | 5.13762 | -74.80338 | 16577 ft | 336 kts | 120° |
| 2026-04-25 02:55 | 5.12937 | -74.78149 | 16596 ft | 338 kts | 98° |
| 2026-04-25 02:55 | 5.12983 | -74.75818 | 16608 ft | 335 kts | 76° |
| 2026-04-25 02:56 | 5.13904 | -74.73688 | 16619 ft | 335 kts | 53° |
| 2026-04-25 02:56 | 5.15478 | -74.71980 | 16621 ft | 333 kts | 41° |
| 2026-04-25 02:56 | 5.17221 | -74.70451 | 16628 ft | 333 kts | 39° |
| 2026-04-25 02:56 | 5.18976 | -74.68939 | 16637 ft | 332 kts | 39° |
| 2026-04-25 02:57 | 5.20708 | -74.67401 | 16646 ft | 333 kts | 40° |
| 2026-04-25 02:57 | 5.22394 | -74.65855 | 16657 ft | 333 kts | 41° |
| 2026-04-25 02:57 | 5.24033 | -74.64216 | 16670 ft | 333 kts | 49° |
| 2026-04-25 02:57 | 5.25334 | -74.62286 | 16695 ft | 335 kts | 61° |
| 2026-04-25 02:58 | 5.26238 | -74.60131 | 16715 ft | 336 kts | 69° |
| 2026-04-25 02:58 | 5.27044 | -74.57935 | 16699 ft | 335 kts | 69° |
| 2026-04-25 02:58 | 5.27639 | -74.55687 | 16499 ft | 334 kts | 85° |
| 2026-04-25 02:58 | 5.27391 | -74.53400 | 16267 ft | 328 kts | 109° |
| 2026-04-25 02:59 | 5.26302 | -74.51453 | 16161 ft | 315 kts | 133° |
| 2026-04-25 02:59 | 5.24647 | -74.50111 | 16054 ft | 300 kts | 154° |
| 2026-04-25 02:59 | 5.22726 | -74.49438 | 15954 ft | 287 kts | 168° |
| 2026-04-25 02:59 | 5.20820 | -74.48978 | 15803 ft | 277 kts | 168° |
| 2026-04-25 03:00 | 5.18982 | -74.48522 | 15494 ft | 275 kts | 168° |
| 2026-04-25 03:00 | 5.17132 | -74.48059 | 15165 ft | 273 kts | 168° |
| 2026-04-25 03:00 | 5.15290 | -74.47597 | 14845 ft | 271 kts | 168° |
| 2026-04-25 03:00 | 5.13463 | -74.47138 | 14523 ft | 270 kts | 167° |
| 2026-04-25 03:01 | 5.11647 | -74.46680 | 14174 ft | 269 kts | 168° |
| 2026-04-25 03:01 | 5.09839 | -74.46224 | 13807 ft | 267 kts | 167° |
| 2026-04-25 03:01 | 5.08046 | -74.45777 | 13427 ft | 264 kts | 167° |
| 2026-04-25 03:01 | 5.06870 | -74.45480 | 13145 ft | 263 kts | 167° |
| 2026-04-25 03:02 | 5.04563 | -74.44899 | 12853 ft | 251 kts | 167° |
| 2026-04-25 03:02 | 5.02877 | -74.44478 | 12829 ft | 249 kts | 167° |
| 2026-04-25 03:02 | 5.01230 | -74.44066 | 12827 ft | 240 kts | 167° |
| 2026-04-25 03:02 | 4.99626 | -74.43666 | 12831 ft | 236 kts | 167° |
| 2026-04-25 03:03 | 4.98019 | -74.43265 | 12845 ft | 239 kts | 167° |
| 2026-04-25 03:03 | 4.96410 | -74.42862 | 12847 ft | 239 kts | 167° |
| 2026-04-25 03:03 | 4.95339 | -74.42592 | 12848 ft | 240 kts | 167° |
| 2026-04-25 03:03 | 4.93178 | -74.42049 | 12848 ft | 239 kts | 167° |
| 2026-04-25 03:04 | 4.92123 | -74.41760 | 12816 ft | 236 kts | 161° |
| 2026-04-25 03:04 | 4.90726 | -74.40927 | 12543 ft | 235 kts | 137° |
| 2026-04-25 03:04 | 4.89652 | -74.39702 | 12092 ft | 232 kts | 129° |
| 2026-04-25 03:05 | 4.87566 | -74.37194 | 11893 ft | 237 kts | 130° |
| 2026-04-25 03:05 | 4.86500 | -74.35927 | 11896 ft | 239 kts | 130° |
| 2026-04-25 03:05 | 4.85443 | -74.34679 | 11940 ft | 237 kts | 129° |
| 2026-04-25 03:05 | 4.84379 | -74.33423 | 11945 ft | 236 kts | 129° |
| 2026-04-25 03:06 | 4.83319 | -74.32169 | 11956 ft | 235 kts | 130° |
| 2026-04-25 03:06 | 4.82254 | -74.30910 | 11964 ft | 237 kts | 129° |
| 2026-04-25 03:06 | 4.81194 | -74.29656 | 11981 ft | 234 kts | 130° |
| 2026-04-25 03:06 | 4.80135 | -74.28411 | 11972 ft | 236 kts | 131° |
| 2026-04-25 03:07 | 4.79025 | -74.27282 | 11848 ft | 214 kts | 135° |
| 2026-04-25 03:07 | 4.78077 | -74.26268 | 11634 ft | 187 kts | 130° |
| 2026-04-25 03:07 | 4.77294 | -74.25293 | 11385 ft | 180 kts | 126° |
| 2026-04-25 03:07 | 4.76549 | -74.24272 | 10868 ft | 182 kts | 125° |
| 2026-04-25 03:08 | 4.75804 | -74.23272 | 10500 ft | 173 kts | 129° |
| 2026-04-25 03:08 | 4.75082 | -74.22334 | 10224 ft | 172 kts | 127° |
| 2026-04-25 03:08 | 4.74387 | -74.21346 | 9804 ft | 172 kts | 125° |
| 2026-04-25 03:08 | 4.73667 | -74.20406 | 9490 ft | 170 kts | 128° |
| 2026-04-25 03:09 | 4.72941 | -74.19458 | 9086 ft | 167 kts | 127° |
| 2026-04-25 03:09 | 4.72274 | -74.18558 | 8819 ft | 160 kts | 129° |
| 2026-04-25 03:09 | 4.71613 | -74.17676 | 8597 ft | 157 kts | 127° |
| 2026-04-25 03:09 | 4.70963 | -74.16795 | 8401 ft | 158 kts | 128° |
| 2026-04-25 03:10 | 4.70367 | -74.15995 | 8372 ft | 119 kts | 128° |
| 2026-04-25 03:10 | 4.69949 | -74.15455 | 8372 ft | 75 kts | 128° |
| 2026-04-25 03:10 | 4.69730 | -74.15063 | 8371 ft | 53 kts | 99° |
| 2026-04-25 03:10 | 4.69730 | -74.14944 | 8370 ft | 1 kts | 51° |
| 2026-04-25 03:11 | 4.69739 | -74.14935 | 8370 ft | 3 kts | 44° |
| 2026-04-25 03:11 | 4.69743 | -74.14932 | 8370 ft | 0 kts | 43° |
| 2026-04-25 03:11 | 4.69743 | -74.14931 | 8370 ft | 0 kts | 42° |
| 2026-04-25 03:11 | 4.69763 | -74.14914 | 8370 ft | 10 kts | 40° |
| 2026-04-25 03:12 | 4.69838 | -74.14864 | 8370 ft | 0 kts | 27° |
| 2026-04-25 03:12 | 4.69852 | -74.14856 | 8370 ft | 10 kts | 30° |
| 2026-04-25 03:12 | 4.69897 | -74.14790 | 8369 ft | 10 kts | 92° |
| 2026-04-25 03:12 | 4.69861 | -74.14725 | 8369 ft | 12 kts | 129° |
| 2026-04-25 03:13 | 4.69829 | -74.14687 | 8370 ft | 1 kts | 129° |
| 2026-04-25 03:13 | 4.69819 | -74.14674 | 8370 ft | 5 kts | 127° |
| 2026-04-25 03:13 | 4.69814 | -74.14622 | 8370 ft | 16 kts | 72° |
| 2026-04-25 03:13 | 4.69829 | -74.14586 | 8370 ft | 0 kts | 68° |